createdAt,value
2019-03-21T00:02:18.900Z,83.92
2019-03-21T00:04:51.421Z,84.18
2019-03-21T00:07:21.047Z,83.38
2019-03-21T00:10:13.457Z,83.59
2019-03-21T00:12:43.078Z,83.62
2019-03-21T00:15:23.338Z,83.96
2019-03-21T00:17:57.697Z,84.53
2019-03-21T00:20:27.312Z,84.17
2019-03-21T00:22:56.933Z,83.59
2019-03-21T00:25:26.581Z,83.84
2019-03-21T00:27:56.202Z,84.50
2019-03-21T00:30:26.750Z,84.73
2019-03-21T00:32:56.370Z,84.39
2019-03-21T00:35:25.975Z,84.36
2019-03-21T00:37:55.597Z,84.18
2019-03-21T00:40:30.472Z,84.51
2019-03-21T00:43:01.870Z,84.73
2019-03-21T00:45:31.483Z,84.35
2019-03-21T00:48:01.769Z,84.20
2019-03-21T00:50:31.405Z,84.56
2019-03-21T00:53:01.024Z,84.62
2019-03-21T00:55:31.457Z,84.74
2019-03-21T00:58:01.176Z,84.87
2019-03-21T01:00:34.252Z,85.58
2019-03-21T01:03:04.021Z,86.09
2019-03-21T01:05:33.616Z,87.37
2019-03-21T01:08:03.228Z,86.50
2019-03-21T01:10:32.857Z,86.70
2019-03-21T01:13:02.467Z,86.71
2019-03-21T01:15:32.098Z,85.98
2019-03-21T01:18:01.698Z,85.64
2019-03-21T01:20:31.325Z,85.73
2019-03-21T01:23:00.921Z,85.53
2019-03-21T01:25:33.968Z,86.26
2019-03-21T01:28:03.611Z,86.10
2019-03-21T01:30:33.189Z,86.18
2019-03-21T01:33:02.790Z,85.73
2019-03-21T01:35:32.412Z,85.64
2019-03-21T01:38:02.020Z,85.82
2019-03-21T01:40:32.420Z,86.11
2019-03-21T01:43:02.030Z,86.52
2019-03-21T01:45:31.844Z,85.93
2019-03-21T01:48:01.437Z,85.58
2019-03-21T01:50:31.307Z,85.84
2019-03-21T01:53:00.903Z,86.04
2019-03-21T01:55:30.517Z,86.87
2019-03-21T01:58:00.114Z,86.79
2019-03-21T02:00:32.201Z,86.66
2019-03-21T02:03:01.819Z,86.19
2019-03-21T02:05:31.440Z,86.28
2019-03-21T02:08:01.041Z,86.28
2019-03-21T02:10:30.674Z,86.41
2019-03-21T02:13:00.269Z,85.83
2019-03-21T02:15:29.878Z,85.80
2019-03-21T02:17:59.498Z,86.60
2019-03-21T02:20:29.099Z,86.19
2019-03-21T02:22:58.720Z,87.04
2019-03-21T02:25:29.265Z,87.38
2019-03-21T02:27:58.911Z,87.45
2019-03-21T02:30:30.998Z,87.60
2019-03-21T02:33:06.810Z,87.37
2019-03-21T02:35:36.414Z,87.36
2019-03-21T02:38:06.031Z,87.25
2019-03-21T02:40:35.627Z,86.98
2019-03-21T02:43:05.262Z,87.06
2019-03-21T02:45:34.860Z,86.92
2019-03-21T02:48:04.487Z,86.91
2019-03-21T02:50:34.367Z,87.11
2019-03-21T02:53:04.233Z,86.84
2019-03-21T02:55:33.871Z,86.36
2019-03-21T02:58:03.501Z,87.08
2019-03-21T03:00:33.694Z,86.57
2019-03-21T03:03:03.385Z,86.97
2019-03-21T03:05:32.989Z,87.25
2019-03-21T03:08:02.718Z,87.44
2019-03-21T03:10:38.131Z,87.47
2019-03-21T03:13:07.785Z,87.48
2019-03-21T03:15:37.357Z,87.38
2019-03-21T03:18:07.009Z,87.93
2019-03-21T03:20:36.608Z,87.56
2019-03-21T03:23:06.215Z,87.73
2019-03-21T03:25:36.117Z,87.34
2019-03-21T03:28:17.817Z,87.33
2019-03-21T03:30:47.438Z,87.44
2019-03-21T03:33:17.065Z,87.51
2019-03-21T03:35:47.711Z,87.37
2019-03-21T03:38:17.314Z,87.60
2019-03-21T03:40:49.365Z,87.85
2019-03-21T03:43:18.988Z,88.03
2019-03-21T03:45:48.582Z,87.75
2019-03-21T03:48:19.863Z,87.96
2019-03-21T03:50:49.552Z,87.73
2019-03-21T03:53:19.139Z,88.23
2019-03-21T03:55:49.907Z,88.11
2019-03-21T03:58:20.210Z,87.72
2019-03-21T04:00:49.963Z,87.79
2019-03-21T04:03:19.574Z,87.78
2019-03-21T04:05:49.224Z,88.09
2019-03-21T04:08:19.041Z,88.00
2019-03-21T04:10:48.695Z,88.28
2019-03-21T04:13:18.302Z,87.93
2019-03-21T04:15:53.096Z,88.19
2019-03-21T04:18:19.515Z,88.03
2019-03-21T04:20:49.513Z,88.33
2019-03-21T04:23:19.669Z,88.54
2019-03-21T04:25:58.234Z,88.72
2019-03-21T04:28:27.842Z,88.36
2019-03-21T04:30:57.450Z,89.02
2019-03-21T04:33:27.089Z,89.29
2019-03-21T04:35:56.692Z,89.71
2019-03-21T04:38:26.345Z,89.37
2019-03-21T04:40:55.944Z,89.59
2019-03-21T04:43:25.572Z,89.87
2019-03-21T04:46:03.277Z,89.68
2019-03-21T04:48:26.528Z,89.62
2019-03-21T04:50:56.124Z,89.68
2019-03-21T04:53:25.750Z,90.10
2019-03-21T04:55:55.355Z,90.25
2019-03-21T04:58:24.976Z,90.07
2019-03-21T05:00:55.022Z,90.06
2019-03-21T05:03:24.775Z,89.61
2019-03-21T05:05:54.375Z,89.25
2019-03-21T05:08:23.997Z,89.71
2019-03-21T05:10:53.597Z,89.63
2019-03-21T05:13:23.217Z,89.57
2019-03-21T05:15:52.852Z,89.95
2019-03-21T05:18:28.648Z,89.83
2019-03-21T05:20:58.252Z,89.55
2019-03-21T05:23:27.882Z,88.57
2019-03-21T05:25:57.500Z,88.73
2019-03-21T05:28:27.122Z,89.09
2019-03-21T05:31:02.948Z,88.87
2019-03-21T05:33:32.687Z,88.53
2019-03-21T05:36:02.318Z,88.75
2019-03-21T05:38:32.612Z,88.77
2019-03-21T05:41:02.222Z,89.00
2019-03-21T05:43:38.642Z,89.36
2019-03-21T05:46:09.628Z,89.28
2019-03-21T05:48:39.254Z,88.48
2019-03-21T05:51:08.848Z,87.64
2019-03-21T05:53:38.462Z,86.97
2019-03-21T05:56:08.388Z,86.40
2019-03-21T05:58:38.007Z,85.33
2019-03-21T06:01:07.650Z,85.31
2019-03-21T06:03:46.829Z,84.88
2019-03-21T06:06:29.363Z,83.96
2019-03-21T06:08:58.977Z,83.83
2019-03-21T06:11:28.795Z,83.44
2019-03-21T06:13:58.740Z,83.88
2019-03-21T06:16:37.252Z,83.57
2019-03-21T06:19:06.944Z,82.17
2019-03-21T06:22:09.178Z,82.23
2019-03-21T06:24:53.495Z,81.36
2019-03-21T06:27:28.248Z,81.40
2019-03-21T06:29:58.186Z,80.07
2019-03-21T06:32:28.136Z,79.23
2019-03-21T06:34:58.061Z,79.17
2019-03-21T06:37:28.916Z,78.16
2019-03-21T06:39:58.721Z,76.82
2019-03-21T06:42:28.327Z,70.84
2019-03-21T06:44:59.146Z,63.63
2019-03-21T06:47:28.749Z,56.42
2019-03-21T06:49:58.366Z,51.97
2019-03-21T06:52:27.970Z,47.55
2019-03-21T06:54:59.768Z,46.03
2019-03-21T06:57:28.921Z,44.85
2019-03-21T06:59:58.554Z,43.10
2019-03-21T07:02:28.192Z,42.81
2019-03-21T07:04:57.828Z,38.42
2019-03-21T07:07:27.428Z,37.96
2019-03-21T07:09:57.068Z,35.85
2019-03-21T07:12:26.665Z,33.57
2019-03-21T07:14:56.324Z,32.29
2019-03-21T07:17:25.930Z,32.33
2019-03-21T07:19:55.554Z,32.83
2019-03-21T07:22:25.157Z,32.12
2019-03-21T07:24:54.758Z,32.52
2019-03-21T07:27:24.386Z,31.83
2019-03-21T07:29:53.992Z,31.17
2019-03-21T07:32:33.121Z,28.58
2019-03-21T07:34:54.961Z,29.29
2019-03-21T07:37:24.591Z,27.61
2019-03-21T07:39:54.208Z,27.09
2019-03-21T07:42:23.835Z,25.92
2019-03-21T07:44:53.449Z,27.41
2019-03-21T07:47:23.061Z,24.25
2019-03-21T07:49:52.659Z,21.61
2019-03-21T07:52:22.293Z,23.23
2019-03-21T07:54:51.894Z,21.56
2019-03-21T07:57:21.522Z,19.49
2019-03-21T07:59:51.128Z,19.14
2019-03-21T08:02:20.884Z,18.90
2019-03-21T08:04:50.492Z,19.24
2019-03-21T08:07:20.114Z,19.61
2019-03-21T08:09:50.851Z,19.94
2019-03-21T08:12:20.522Z,18.24
2019-03-21T08:14:50.133Z,17.60
2019-03-21T08:17:19.791Z,17.59
2019-03-21T08:19:49.386Z,16.49
2019-03-21T08:22:19.013Z,17.30
2019-03-21T08:24:48.620Z,16.71
2019-03-21T08:27:18.243Z,15.60
2019-03-21T08:29:47.854Z,16.02
2019-03-21T08:32:17.479Z,15.69
2019-03-21T08:34:47.096Z,16.21
2019-03-21T08:37:16.715Z,17.36
2019-03-21T08:39:46.326Z,16.22
2019-03-21T08:42:15.962Z,16.87
2019-03-21T08:44:45.573Z,16.60
2019-03-21T08:47:15.206Z,16.08
2019-03-21T08:49:44.819Z,17.52
2019-03-21T08:52:14.420Z,16.25
2019-03-21T08:54:44.045Z,16.54
2019-03-21T08:57:13.675Z,15.45
2019-03-21T08:59:43.310Z,15.21
2019-03-21T09:02:12.934Z,14.67
2019-03-21T09:04:42.560Z,14.36
2019-03-21T09:07:12.166Z,15.45
2019-03-21T09:09:41.794Z,16.01
2019-03-21T09:12:11.407Z,16.18
2019-03-21T09:14:41.035Z,15.37
2019-03-21T09:17:10.651Z,15.13
2019-03-21T09:19:40.278Z,14.79
2019-03-21T09:22:09.883Z,14.78
2019-03-21T09:24:39.518Z,14.24
2019-03-21T09:27:09.121Z,15.08
2019-03-21T09:29:38.746Z,16.14
2019-03-21T09:32:08.377Z,15.16
2019-03-21T09:34:37.991Z,15.90
2019-03-21T09:37:07.603Z,14.64
2019-03-21T09:39:37.224Z,15.07
2019-03-21T09:42:06.827Z,16.19
2019-03-21T09:44:36.455Z,17.83
2019-03-21T09:47:06.061Z,16.48
2019-03-21T09:49:35.689Z,15.74
2019-03-21T09:52:05.293Z,15.39
2019-03-21T09:54:34.929Z,16.09
2019-03-21T09:57:04.634Z,15.09
2019-03-21T09:59:34.279Z,15.71
2019-03-21T10:02:03.902Z,14.53
2019-03-21T10:04:33.544Z,16.36
2019-03-21T10:07:03.145Z,15.44
2019-03-21T10:09:32.781Z,16.04
2019-03-21T10:12:02.381Z,14.75
2019-03-21T10:14:31.992Z,14.91
2019-03-21T10:17:01.619Z,15.25
2019-03-21T10:19:31.230Z,13.61
2019-03-21T10:22:00.857Z,14.23
2019-03-21T10:24:30.475Z,13.99
2019-03-21T10:27:00.086Z,14.41
2019-03-21T10:29:29.698Z,13.97
2019-03-21T10:31:59.349Z,14.32
2019-03-21T10:34:28.936Z,12.75
2019-03-21T10:36:58.565Z,13.38
2019-03-21T10:39:28.162Z,13.92
2019-03-21T10:41:57.790Z,14.65
2019-03-21T10:44:27.398Z,13.90
2019-03-21T10:46:57.020Z,14.79
2019-03-21T10:49:26.626Z,14.44
2019-03-21T10:51:56.266Z,13.84
2019-03-21T10:54:25.866Z,13.58
2019-03-21T10:56:55.506Z,13.13
2019-03-21T10:59:25.122Z,14.54
2019-03-21T11:01:54.763Z,14.58
2019-03-21T11:04:24.364Z,13.70
2019-03-21T11:06:59.939Z,13.09
2019-03-21T11:09:30.045Z,14.09
2019-03-21T11:11:59.842Z,12.81
2019-03-21T11:14:29.488Z,13.62
2019-03-21T11:16:59.145Z,12.97
2019-03-21T11:19:28.777Z,15.63
2019-03-21T11:22:06.229Z,14.63
2019-03-21T11:24:29.727Z,13.67
2019-03-21T11:26:59.361Z,13.67
2019-03-21T11:29:28.966Z,14.19
2019-03-21T11:31:58.578Z,13.72
2019-03-21T11:34:28.206Z,13.79
2019-03-21T11:36:57.816Z,14.79
2019-03-21T11:39:27.442Z,13.96
2019-03-21T11:41:57.043Z,14.62
2019-03-21T11:44:26.681Z,13.75
2019-03-21T11:46:56.300Z,13.95
2019-03-21T11:49:25.921Z,14.46
2019-03-21T11:51:55.537Z,14.91
2019-03-21T11:54:25.176Z,14.23
2019-03-21T11:56:54.768Z,14.09
2019-03-21T11:59:24.390Z,13.94
2019-03-21T12:01:54.040Z,13.98
2019-03-21T12:04:23.673Z,15.41
2019-03-21T12:06:53.294Z,16.73
2019-03-21T12:09:22.917Z,15.66
2019-03-21T12:11:53.181Z,16.37
2019-03-21T12:14:22.820Z,15.34
2019-03-21T12:16:52.430Z,14.22
2019-03-21T12:19:22.060Z,14.06
2019-03-21T12:21:51.667Z,14.43
2019-03-21T12:24:21.290Z,14.72
2019-03-21T12:26:50.910Z,14.72
2019-03-21T12:29:20.532Z,15.90
2019-03-21T12:31:50.133Z,15.63
2019-03-21T12:34:19.754Z,15.36
2019-03-21T12:36:49.366Z,14.26
2019-03-21T12:39:18.985Z,14.26
2019-03-21T12:41:48.593Z,12.94
2019-03-21T12:44:18.247Z,12.12
2019-03-21T12:46:47.834Z,14.26
2019-03-21T12:49:17.465Z,12.49
2019-03-21T12:51:47.108Z,15.49
2019-03-21T12:54:16.697Z,14.35
2019-03-21T12:56:46.358Z,14.21
2019-03-21T12:59:16.005Z,13.42
2019-03-21T13:01:45.639Z,15.70
2019-03-21T13:04:15.268Z,14.98
2019-03-21T13:06:44.875Z,15.71
2019-03-21T13:09:14.501Z,16.00
2019-03-21T13:11:44.107Z,15.90
2019-03-21T13:14:13.730Z,16.67
2019-03-21T13:16:43.336Z,16.55
2019-03-21T13:19:12.967Z,14.82
2019-03-21T13:21:42.587Z,14.44
2019-03-21T13:24:12.223Z,15.08
2019-03-21T13:26:41.826Z,16.31
2019-03-21T13:29:11.464Z,15.40
2019-03-21T13:31:41.071Z,15.13
2019-03-21T13:34:10.697Z,15.77
2019-03-21T13:36:40.333Z,16.76
2019-03-21T13:39:09.979Z,14.85
2019-03-21T13:41:39.577Z,15.86
2019-03-21T13:44:09.202Z,14.34
2019-03-21T13:46:38.820Z,15.09
2019-03-21T13:49:08.450Z,15.04
2019-03-21T13:51:38.054Z,15.16
2019-03-21T13:54:08.726Z,16.09
2019-03-21T13:56:38.591Z,16.19
2019-03-21T13:59:08.208Z,15.03
2019-03-21T14:01:37.839Z,14.77
2019-03-21T14:04:07.446Z,17.12
2019-03-21T14:06:37.078Z,15.40
2019-03-21T14:09:08.284Z,15.53
2019-03-21T14:11:37.931Z,15.20
2019-03-21T14:14:07.497Z,16.18
2019-03-21T14:16:37.131Z,15.36
2019-03-21T14:19:06.735Z,17.67
2019-03-21T14:21:36.367Z,18.33
2019-03-21T14:24:06.015Z,17.22
2019-03-21T14:26:35.666Z,17.91
2019-03-21T14:29:12.536Z,17.64
2019-03-21T14:31:36.590Z,16.74
2019-03-21T14:34:06.204Z,17.07
2019-03-21T14:36:35.830Z,17.85
2019-03-21T14:39:07.361Z,17.02
2019-03-21T14:41:37.017Z,18.35
2019-03-21T14:44:07.164Z,18.70
2019-03-21T14:46:36.836Z,19.14
2019-03-21T14:49:06.450Z,18.32
2019-03-21T14:51:36.081Z,18.65
2019-03-21T14:54:05.721Z,19.02
2019-03-21T14:56:35.348Z,18.63
2019-03-21T14:59:04.964Z,19.64
2019-03-21T15:01:34.619Z,19.00
2019-03-21T15:04:04.236Z,17.79
2019-03-21T15:06:33.865Z,19.93
2019-03-21T15:09:03.659Z,19.07
2019-03-21T15:11:33.331Z,18.31
2019-03-21T15:14:02.890Z,19.86
2019-03-21T15:16:32.523Z,20.02
2019-03-21T15:19:02.131Z,19.99
2019-03-21T15:21:31.763Z,19.81
2019-03-21T15:24:01.371Z,21.14
2019-03-21T15:26:30.999Z,21.38
2019-03-21T15:29:00.615Z,20.65
2019-03-21T15:31:30.242Z,20.81
2019-03-21T15:33:59.863Z,20.10
2019-03-21T15:36:29.492Z,20.82
2019-03-21T15:38:59.105Z,21.85
2019-03-21T15:41:28.730Z,21.39
2019-03-21T15:43:58.335Z,21.57
2019-03-21T15:46:27.962Z,22.04
2019-03-21T15:48:57.576Z,22.20
2019-03-21T15:51:27.210Z,22.20
2019-03-21T15:53:56.832Z,21.77
2019-03-21T15:56:26.452Z,22.67
2019-03-21T15:58:56.054Z,23.05
2019-03-21T16:01:25.694Z,23.78
2019-03-21T16:03:55.308Z,23.90
2019-03-21T16:06:24.931Z,23.77
2019-03-21T16:08:54.546Z,24.56
2019-03-21T16:11:24.179Z,26.32
2019-03-21T16:13:53.779Z,26.02
2019-03-21T16:16:23.422Z,26.33
2019-03-21T16:18:53.015Z,26.32
2019-03-21T16:21:22.654Z,27.75
2019-03-21T16:24:04.170Z,28.69
2019-03-21T16:26:23.686Z,27.47
2019-03-21T16:28:53.301Z,29.13
2019-03-21T16:31:23.309Z,29.63
2019-03-21T16:33:52.930Z,29.90
2019-03-21T16:36:22.533Z,29.25
2019-03-21T16:38:52.150Z,31.61
2019-03-21T16:41:21.746Z,30.34
2019-03-21T16:43:51.378Z,32.16
2019-03-21T16:46:20.990Z,32.51
2019-03-21T16:48:50.622Z,32.77
2019-03-21T16:51:20.234Z,33.03
2019-03-21T16:53:49.872Z,34.70
2019-03-21T16:56:19.483Z,33.94
2019-03-21T16:58:49.109Z,34.67
2019-03-21T17:01:18.724Z,33.92
2019-03-21T17:03:48.367Z,35.16
2019-03-21T17:06:17.982Z,35.92
2019-03-21T17:08:47.614Z,37.81
2019-03-21T17:11:17.250Z,37.81
2019-03-21T17:13:46.864Z,37.60
2019-03-21T17:16:16.473Z,37.05
2019-03-21T17:18:46.116Z,37.05
2019-03-21T17:21:15.734Z,40.09
2019-03-21T17:23:45.383Z,40.09
2019-03-21T17:26:16.031Z,40.61
2019-03-21T17:28:45.686Z,40.23
2019-03-21T17:31:15.311Z,41.58
2019-03-21T17:33:44.940Z,41.58
2019-03-21T17:36:14.562Z,43.03
2019-03-21T17:38:44.211Z,44.64
2019-03-21T17:41:14.192Z,46.69
2019-03-21T17:43:43.832Z,47.06
2019-03-21T17:46:13.451Z,48.27
2019-03-21T17:48:43.094Z,49.10
2019-03-21T17:51:12.702Z,50.77
2019-03-21T17:53:42.344Z,51.88
2019-03-21T17:56:11.939Z,53.57
2019-03-21T17:58:41.580Z,53.34
2019-03-21T18:01:11.191Z,54.33
2019-03-21T18:03:40.856Z,54.49
2019-03-21T18:06:10.467Z,54.72
2019-03-21T18:08:40.109Z,54.59
2019-03-21T18:11:09.727Z,54.56
2019-03-21T18:13:39.360Z,55.13
2019-03-21T18:16:08.969Z,57.51
2019-03-21T18:18:38.614Z,58.44
2019-03-21T18:21:08.215Z,58.00
2019-03-21T18:23:37.837Z,59.09
2019-03-21T18:26:07.435Z,59.13
2019-03-21T18:28:37.058Z,60.61
2019-03-21T18:31:06.657Z,60.88
2019-03-21T18:33:36.280Z,60.35
2019-03-21T18:36:05.895Z,60.92
2019-03-21T18:38:35.525Z,62.28
2019-03-21T18:41:05.425Z,62.37
2019-03-21T18:43:35.062Z,62.25
2019-03-21T18:46:04.730Z,63.15
2019-03-21T18:48:34.366Z,62.78
2019-03-21T18:51:03.982Z,62.79
2019-03-21T18:53:33.614Z,62.91
2019-03-21T18:56:03.238Z,62.75
2019-03-21T18:58:32.841Z,62.95
2019-03-21T19:01:02.490Z,63.47
2019-03-21T19:03:32.149Z,63.69
2019-03-21T19:06:01.761Z,64.31
2019-03-21T19:08:31.389Z,64.68
2019-03-21T19:11:00.998Z,64.84
2019-03-21T19:13:30.610Z,64.69
2019-03-21T19:16:00.478Z,65.03
2019-03-21T19:18:30.082Z,65.52
2019-03-21T19:20:59.719Z,66.55
2019-03-21T19:23:29.340Z,66.07
2019-03-21T19:25:58.962Z,66.27
2019-03-21T19:28:28.560Z,66.37
2019-03-21T19:30:58.181Z,67.33
2019-03-21T19:33:27.785Z,68.01
2019-03-21T19:35:57.909Z,67.94
2019-03-21T19:38:27.513Z,67.52
2019-03-21T19:40:57.149Z,67.92
2019-03-21T19:43:26.752Z,68.42
2019-03-21T19:45:56.449Z,68.79
2019-03-21T19:48:26.040Z,69.40
2019-03-21T19:50:55.661Z,69.87
2019-03-21T19:53:25.267Z,69.96
2019-03-21T19:55:55.030Z,69.83
2019-03-21T19:58:24.793Z,69.93
2019-03-21T20:00:54.564Z,70.17
2019-03-21T20:03:24.424Z,70.45
2019-03-21T20:06:00.193Z,71.30
2019-03-21T20:08:25.674Z,71.54
2019-03-21T20:10:55.282Z,72.07
2019-03-21T20:13:26.243Z,71.81
2019-03-21T20:15:55.836Z,71.72
2019-03-21T20:18:25.475Z,71.81
2019-03-21T20:20:55.375Z,72.13
2019-03-21T20:23:25.864Z,71.83
2019-03-21T20:25:55.966Z,72.13
2019-03-21T20:28:26.065Z,72.34
2019-03-21T20:30:55.755Z,71.94
2019-03-21T20:33:26.291Z,72.13
2019-03-21T20:35:56.089Z,73.00
2019-03-21T20:38:25.785Z,72.92
2019-03-21T20:40:55.766Z,72.78
2019-03-21T20:43:25.713Z,73.22
2019-03-21T20:45:55.659Z,73.10
2019-03-21T20:48:29.901Z,72.94
2019-03-21T20:51:00.099Z,73.26
2019-03-21T20:53:29.934Z,73.97
2019-03-21T20:56:00.240Z,73.94
2019-03-21T20:58:30.391Z,73.43
2019-03-21T21:01:00.439Z,73.50
2019-03-21T21:03:31.802Z,73.97
2019-03-21T21:06:01.562Z,74.29
2019-03-21T21:08:31.525Z,74.17
2019-03-21T21:11:01.471Z,74.20
2019-03-21T21:13:31.576Z,74.98
2019-03-21T21:16:01.434Z,75.78
2019-03-21T21:18:32.703Z,75.08
2019-03-21T21:21:02.313Z,75.63
2019-03-21T21:23:31.944Z,75.62
2019-03-21T21:26:05.855Z,75.64
2019-03-21T21:28:32.896Z,75.50
2019-03-21T21:31:02.498Z,75.81
2019-03-21T21:33:32.142Z,76.90
2019-03-21T21:36:01.747Z,76.84
2019-03-21T21:38:31.344Z,76.64
2019-03-21T21:41:00.972Z,76.39
2019-03-21T21:43:30.608Z,76.89
2019-03-21T21:46:00.210Z,76.65
2019-03-21T21:48:29.810Z,76.42
2019-03-21T21:50:59.425Z,76.58
2019-03-21T21:53:29.038Z,76.67
2019-03-21T21:55:58.654Z,77.47
2019-03-21T21:58:28.277Z,77.65
2019-03-21T22:00:57.909Z,77.20
2019-03-21T22:03:27.531Z,77.16
2019-03-21T22:05:57.169Z,76.93
2019-03-21T22:08:26.770Z,77.41
2019-03-21T22:10:56.406Z,77.72
2019-03-21T22:13:26.013Z,77.77
2019-03-21T22:15:55.629Z,78.08
2019-03-21T22:18:25.238Z,78.11
2019-03-21T22:20:54.857Z,78.09
2019-03-21T22:23:24.457Z,78.39
2019-03-21T22:25:54.078Z,78.43
2019-03-21T22:28:23.681Z,78.68
2019-03-21T22:30:53.316Z,79.44
2019-03-21T22:33:22.915Z,78.86
2019-03-21T22:35:52.537Z,78.42
2019-03-21T22:38:22.134Z,78.62
2019-03-21T22:40:51.763Z,78.63
2019-03-21T22:43:21.369Z,78.89
2019-03-21T22:45:50.989Z,79.22
2019-03-21T22:48:20.591Z,78.36
2019-03-21T22:50:50.228Z,78.94
2019-03-21T22:53:19.824Z,78.53
2019-03-21T22:55:49.445Z,78.96
2019-03-21T22:58:19.046Z,79.07
2019-03-21T23:00:50.025Z,79.72
2019-03-21T23:03:19.686Z,80.30
2019-03-21T23:05:49.292Z,80.27
2019-03-21T23:08:18.916Z,80.08
2019-03-21T23:10:48.520Z,80.09
2019-03-21T23:13:18.144Z,80.35
2019-03-21T23:15:47.744Z,80.12
2019-03-21T23:18:17.367Z,80.13
2019-03-21T23:20:46.962Z,79.97
2019-03-21T23:23:16.587Z,80.31
2019-03-21T23:25:46.190Z,80.49
2019-03-21T23:28:15.813Z,80.31
2019-03-21T23:30:45.409Z,80.29
2019-03-21T23:33:15.038Z,80.21
2019-03-21T23:35:44.654Z,80.20
2019-03-21T23:38:14.302Z,80.96
2019-03-21T23:40:43.971Z,81.07
2019-03-21T23:43:13.589Z,80.31
2019-03-21T23:45:43.193Z,79.67
2019-03-21T23:48:12.827Z,80.51
2019-03-21T23:50:42.420Z,81.59
2019-03-21T23:53:12.036Z,81.64
2019-03-21T23:55:41.639Z,82.17
2019-03-21T23:58:11.261Z,82.27
